createdAt,value
2023-05-17T00:00:11.082Z,11.38
2023-05-17T00:01:11.084Z,11.35
2023-05-17T00:02:11.074Z,11.33
2023-05-17T00:03:11.144Z,11.31
2023-05-17T00:04:11.168Z,11.32
2023-05-17T00:05:11.090Z,11.33
2023-05-17T00:06:11.124Z,11.30
2023-05-17T00:07:11.106Z,11.27
2023-05-17T00:08:11.083Z,11.29
2023-05-17T00:09:11.091Z,11.27
2023-05-17T00:10:11.084Z,11.24
2023-05-17T00:11:11.078Z,11.27
2023-05-17T00:12:11.079Z,11.29
2023-05-17T00:13:11.084Z,11.30
2023-05-17T00:14:11.076Z,11.28
2023-05-17T00:15:11.089Z,11.31
2023-05-17T00:16:11.077Z,11.30
2023-05-17T00:17:11.072Z,11.27
2023-05-17T00:18:11.189Z,11.23
2023-05-17T00:19:11.270Z,11.23
2023-05-17T00:20:11.097Z,11.23
2023-05-17T00:21:11.090Z,11.21
2023-05-17T00:22:11.081Z,11.23
2023-05-17T00:23:11.077Z,11.24
2023-05-17T00:24:11.102Z,11.22
2023-05-17T00:25:11.083Z,11.21
2023-05-17T00:26:12.096Z,11.19
2023-05-17T00:27:11.087Z,11.16
2023-05-17T00:28:11.087Z,11.16
2023-05-17T00:29:11.082Z,11.17
2023-05-17T00:30:11.104Z,11.17
2023-05-17T00:31:11.084Z,11.16
2023-05-17T00:32:11.084Z,11.17
2023-05-17T00:33:11.087Z,11.16
2023-05-17T00:34:11.087Z,11.17
2023-05-17T00:35:11.116Z,11.17
2023-05-17T00:36:11.090Z,11.13
2023-05-17T00:37:11.080Z,11.07
2023-05-17T00:38:11.092Z,11.07
2023-05-17T00:39:11.110Z,11.08
2023-05-17T00:40:11.080Z,11.07
2023-05-17T00:41:11.082Z,11.08
2023-05-17T00:42:11.095Z,11.09
2023-05-17T00:43:11.085Z,11.11
2023-05-17T00:44:11.099Z,11.09
2023-05-17T00:45:11.090Z,11.09
2023-05-17T00:46:11.088Z,11.10
2023-05-17T00:47:11.129Z,11.04
2023-05-17T00:48:11.253Z,11.03
2023-05-17T00:49:11.085Z,11.04
2023-05-17T00:50:11.081Z,11.05
2023-05-17T00:51:11.101Z,11.04
2023-05-17T00:52:11.115Z,11.06
2023-05-17T00:53:11.083Z,11.02
2023-05-17T00:54:11.087Z,11.01
2023-05-17T00:55:11.087Z,11.01
2023-05-17T00:56:11.090Z,11.04
2023-05-17T00:57:11.089Z,11.03
2023-05-17T00:58:13.085Z,11.05
2023-05-17T00:59:11.081Z,11.06
2023-05-17T01:00:11.090Z,11.04
2023-05-17T01:01:11.065Z,11.03
2023-05-17T01:02:11.058Z,11.03
2023-05-17T01:03:11.122Z,11.02
2023-05-17T01:04:11.204Z,11.04
2023-05-17T01:05:11.057Z,11.01
2023-05-17T01:06:11.067Z,11.00
2023-05-17T01:07:11.070Z,10.99
2023-05-17T01:08:11.057Z,11.00
2023-05-17T01:09:11.077Z,11.03
2023-05-17T01:10:11.066Z,10.99
2023-05-17T01:11:18.067Z,10.99
2023-05-17T01:12:19.062Z,10.96
2023-05-17T01:13:19.067Z,10.95
2023-05-17T01:14:19.063Z,10.96
2023-05-17T01:15:17.063Z,10.95
2023-05-17T01:16:19.065Z,10.93
2023-05-17T01:17:21.151Z,10.91
2023-05-17T01:18:21.119Z,10.91
2023-05-17T01:19:19.187Z,10.90
2023-05-17T01:20:19.115Z,10.92
2023-05-17T01:21:19.061Z,10.93
2023-05-17T01:22:19.075Z,10.93
2023-05-17T01:23:22.065Z,10.90
2023-05-17T01:24:19.059Z,10.92
2023-05-17T01:25:19.060Z,10.89
2023-05-17T01:26:18.076Z,10.84
2023-05-17T01:27:11.070Z,10.84
2023-05-17T01:28:12.062Z,10.84
2023-05-17T01:29:12.065Z,10.86
2023-05-17T01:30:11.072Z,10.82
2023-05-17T01:31:11.060Z,10.83
2023-05-17T01:32:11.062Z,10.85
2023-05-17T01:33:11.125Z,10.83
2023-05-17T01:34:11.079Z,10.82
2023-05-17T01:35:11.063Z,10.80
2023-05-17T01:36:11.063Z,10.76
2023-05-17T01:37:11.065Z,10.76
2023-05-17T01:38:11.059Z,10.78
2023-05-17T01:39:11.070Z,10.77
2023-05-17T01:40:11.067Z,10.76
2023-05-17T01:41:17.066Z,10.75
2023-05-17T01:42:19.069Z,10.77
2023-05-17T01:43:19.067Z,10.79
2023-05-17T01:44:19.069Z,10.75
2023-05-17T01:45:19.061Z,10.73
2023-05-17T01:46:19.088Z,10.72
2023-05-17T01:47:22.068Z,10.71
2023-05-17T01:48:19.178Z,10.73
2023-05-17T01:49:19.069Z,10.74
2023-05-17T01:50:12.067Z,10.71
2023-05-17T01:51:16.081Z,10.72
2023-05-17T01:52:19.064Z,10.70
2023-05-17T01:53:20.064Z,10.70
2023-05-17T01:54:20.067Z,10.68
2023-05-17T01:55:19.072Z,10.68
2023-05-17T01:56:13.225Z,10.61
2023-05-17T01:57:11.065Z,10.53
2023-05-17T01:58:12.084Z,10.55
2023-05-17T01:59:11.069Z,10.54
2023-05-17T02:00:11.100Z,10.51
2023-05-17T02:01:11.069Z,10.51
2023-05-17T02:02:12.070Z,10.50
2023-05-17T02:03:13.066Z,10.48
2023-05-17T02:04:11.234Z,10.46
2023-05-17T02:05:11.177Z,10.43
2023-05-17T02:06:11.066Z,10.42
2023-05-17T02:07:11.070Z,10.44
2023-05-17T02:08:11.067Z,10.38
2023-05-17T02:09:11.074Z,10.39
2023-05-17T02:10:11.070Z,10.41
2023-05-17T02:11:11.073Z,10.39
2023-05-17T02:12:11.097Z,10.38
2023-05-17T02:13:11.065Z,10.38
2023-05-17T02:14:11.075Z,10.37
2023-05-17T02:15:11.070Z,10.36
2023-05-17T02:16:11.069Z,10.34
2023-05-17T02:17:11.083Z,10.35
2023-05-17T02:18:11.142Z,10.34
2023-05-17T02:19:11.109Z,10.32
2023-05-17T02:20:11.087Z,10.32
2023-05-17T02:21:11.075Z,10.32
2023-05-17T02:22:11.082Z,10.30
2023-05-17T02:23:11.071Z,10.29
2023-05-17T02:24:11.070Z,10.28
2023-05-17T02:25:11.070Z,10.29
2023-05-17T02:26:11.075Z,10.29
2023-05-17T02:27:11.072Z,10.30
2023-05-17T02:28:11.068Z,10.26
2023-05-17T02:29:11.118Z,10.25
2023-05-17T02:30:11.070Z,10.27
2023-05-17T02:31:11.074Z,10.23
2023-05-17T02:32:11.092Z,10.24
2023-05-17T02:33:11.149Z,10.26
2023-05-17T02:34:11.073Z,10.26
2023-05-17T02:35:11.075Z,10.23
2023-05-17T02:36:11.075Z,10.23
2023-05-17T02:37:11.073Z,10.22
2023-05-17T02:38:11.077Z,10.25
2023-05-17T02:39:11.079Z,10.23
2023-05-17T02:40:13.100Z,10.24
2023-05-17T02:41:11.075Z,10.24
2023-05-17T02:42:11.072Z,10.26
2023-05-17T02:43:11.076Z,10.27
2023-05-17T02:44:11.081Z,10.24
2023-05-17T02:45:11.095Z,10.24
2023-05-17T02:46:11.074Z,10.21
2023-05-17T02:47:11.127Z,10.22
2023-05-17T02:48:11.094Z,10.23
2023-05-17T02:49:11.102Z,10.23
2023-05-17T02:50:11.123Z,10.22
2023-05-17T02:51:11.079Z,10.20
2023-05-17T02:52:11.082Z,10.20
2023-05-17T02:53:11.106Z,10.20
2023-05-17T02:54:11.067Z,10.20
2023-05-17T02:55:11.075Z,10.21
2023-05-17T02:56:11.080Z,10.20
2023-05-17T02:57:11.069Z,10.20
2023-05-17T02:58:11.088Z,10.21
2023-05-17T02:59:11.073Z,10.21
2023-05-17T03:00:11.067Z,10.24
2023-05-17T03:01:11.076Z,10.24
2023-05-17T03:02:11.096Z,10.24
2023-05-17T03:03:11.178Z,10.24
2023-05-17T03:04:11.131Z,10.24
2023-05-17T03:05:11.080Z,10.22
2023-05-17T03:06:11.078Z,10.23
2023-05-17T03:07:11.074Z,10.18
2023-05-17T03:08:11.076Z,10.22
2023-05-17T03:09:11.072Z,10.22
2023-05-17T03:10:11.074Z,10.22
2023-05-17T03:11:11.082Z,10.23
2023-05-17T03:12:11.072Z,10.21
2023-05-17T03:13:11.074Z,10.23
2023-05-17T03:14:11.075Z,10.23
2023-05-17T03:15:11.076Z,10.20
2023-05-17T03:16:11.083Z,10.18
2023-05-17T03:17:11.077Z,10.20
2023-05-17T03:18:11.196Z,10.22
2023-05-17T03:19:11.349Z,10.21
2023-05-17T03:20:11.077Z,10.18
2023-05-17T03:21:11.076Z,10.16
2023-05-17T03:22:11.085Z,10.18
2023-05-17T03:23:11.090Z,10.19
2023-05-17T03:24:11.101Z,10.22
2023-05-17T03:25:11.075Z,10.21
2023-05-17T03:26:11.083Z,10.19
2023-05-17T03:27:11.125Z,10.22
2023-05-17T03:28:11.077Z,10.19
2023-05-17T03:29:11.098Z,10.21
2023-05-17T03:30:11.100Z,10.19
2023-05-17T03:31:11.077Z,10.21
2023-05-17T03:32:11.123Z,10.22
2023-05-17T03:33:11.219Z,10.19
2023-05-17T03:34:11.106Z,10.16
2023-05-17T03:35:11.082Z,10.17
2023-05-17T03:36:11.084Z,10.17
2023-05-17T03:37:11.077Z,10.17
2023-05-17T03:38:11.081Z,10.15
2023-05-17T03:39:11.078Z,10.16
2023-05-17T03:40:11.072Z,10.19
2023-05-17T03:41:11.087Z,10.18
2023-05-17T03:42:11.081Z,10.19
2023-05-17T03:43:11.080Z,10.20
2023-05-17T03:44:11.089Z,10.22
2023-05-17T03:45:11.082Z,10.22
2023-05-17T03:46:11.079Z,10.22
2023-05-17T03:47:11.087Z,10.18
2023-05-17T03:48:11.146Z,10.18
2023-05-17T03:49:11.252Z,10.20
2023-05-17T03:50:11.096Z,10.20
2023-05-17T03:51:11.071Z,10.21
2023-05-17T03:52:11.093Z,10.19
2023-05-17T03:53:11.094Z,10.17
2023-05-17T03:54:11.081Z,10.16
2023-05-17T03:55:11.099Z,10.19
2023-05-17T03:56:11.090Z,10.18
2023-05-17T03:57:11.079Z,10.17
2023-05-17T03:58:11.084Z,10.19
2023-05-17T03:59:11.087Z,10.19
2023-05-17T04:00:15.076Z,10.14
2023-05-17T04:01:11.067Z,10.15
2023-05-17T04:02:11.066Z,10.15
2023-05-17T04:03:11.063Z,10.14
2023-05-17T04:04:11.137Z,10.17
2023-05-17T04:05:11.074Z,10.15
2023-05-17T04:06:11.063Z,10.15
2023-05-17T04:07:11.060Z,10.15
2023-05-17T04:08:11.066Z,10.13
2023-05-17T04:09:11.250Z,10.15
2023-05-17T04:10:11.061Z,10.16
2023-05-17T04:11:15.083Z,10.16
2023-05-17T04:12:11.080Z,10.12
2023-05-17T04:13:11.065Z,10.09
2023-05-17T04:14:11.065Z,10.09
2023-05-17T04:15:11.074Z,10.14
2023-05-17T04:16:11.062Z,10.16
2023-05-17T04:17:11.066Z,10.16
2023-05-17T04:18:11.125Z,10.17
2023-05-17T04:19:11.143Z,10.18
2023-05-17T04:20:13.065Z,10.19
2023-05-17T04:21:11.079Z,10.20
2023-05-17T04:22:11.078Z,10.17
2023-05-17T04:23:11.069Z,10.18
2023-05-17T04:24:11.066Z,10.13
2023-05-17T04:25:11.066Z,10.14
2023-05-17T04:26:11.068Z,10.15
2023-05-17T04:27:11.083Z,10.12
2023-05-17T04:28:11.067Z,10.15
2023-05-17T04:29:11.065Z,10.15
2023-05-17T04:30:11.065Z,10.12
2023-05-17T04:31:11.071Z,10.14
2023-05-17T04:32:11.072Z,10.14
2023-05-17T04:33:13.465Z,10.15
2023-05-17T04:34:11.110Z,10.18
2023-05-17T04:35:11.077Z,10.20
2023-05-17T04:36:11.074Z,10.18
2023-05-17T04:37:11.073Z,10.21
2023-05-17T04:38:11.069Z,10.22
2023-05-17T04:39:11.078Z,10.24
2023-05-17T04:40:11.065Z,10.25
2023-05-17T04:41:11.070Z,10.22
2023-05-17T04:42:11.078Z,10.23
2023-05-17T04:43:11.063Z,10.20
2023-05-17T04:44:11.067Z,10.17
2023-05-17T04:45:11.439Z,10.18
2023-05-17T04:46:11.072Z,10.18
2023-05-17T04:47:11.070Z,10.19
2023-05-17T04:48:11.148Z,10.20
2023-05-17T04:49:11.066Z,10.20
2023-05-17T04:50:11.072Z,10.20
2023-05-17T04:51:11.088Z,10.21
2023-05-17T04:52:11.075Z,10.22
2023-05-17T04:53:11.119Z,10.18
2023-05-17T04:54:12.086Z,10.17
2023-05-17T04:55:11.075Z,10.19
2023-05-17T04:56:11.073Z,10.18
2023-05-17T04:57:11.073Z,10.20
2023-05-17T04:58:11.073Z,10.19
2023-05-17T04:59:11.071Z,10.19
2023-05-17T05:00:15.072Z,10.22
2023-05-17T05:01:11.071Z,10.23
2023-05-17T05:02:11.077Z,10.25
2023-05-17T05:03:11.175Z,10.25
2023-05-17T05:04:11.210Z,10.27
2023-05-17T05:05:11.132Z,10.28
2023-05-17T05:06:11.071Z,10.32
2023-05-17T05:07:11.076Z,10.34
2023-05-17T05:08:11.068Z,10.33
2023-05-17T05:09:11.081Z,10.33
2023-05-17T05:10:11.084Z,10.35
2023-05-17T05:11:11.073Z,10.38
2023-05-17T05:12:11.066Z,10.39
2023-05-17T05:13:11.071Z,10.42
2023-05-17T05:14:11.070Z,10.41
2023-05-17T05:15:11.084Z,10.41
2023-05-17T05:16:11.071Z,10.41
2023-05-17T05:17:11.067Z,10.44
2023-05-17T05:18:11.151Z,10.49
2023-05-17T05:19:11.253Z,10.51
2023-05-17T05:20:11.078Z,10.53
2023-05-17T05:21:11.073Z,10.50
2023-05-17T05:22:11.077Z,10.54
2023-05-17T05:23:11.068Z,10.55
2023-05-17T05:24:11.070Z,10.58
2023-05-17T05:25:11.075Z,10.59
2023-05-17T05:26:11.067Z,10.65
2023-05-17T05:27:11.076Z,10.68
2023-05-17T05:28:11.069Z,10.70
2023-05-17T05:29:11.086Z,10.73
2023-05-17T05:30:11.077Z,10.78
2023-05-17T05:31:11.071Z,10.79
2023-05-17T05:32:11.067Z,10.82
2023-05-17T05:33:11.161Z,10.81
2023-05-17T05:34:11.174Z,10.79
2023-05-17T05:35:11.071Z,10.82
2023-05-17T05:36:11.072Z,10.81
2023-05-17T05:37:11.079Z,10.85
2023-05-17T05:38:11.071Z,10.88
2023-05-17T05:39:11.073Z,10.89
2023-05-17T05:40:11.085Z,10.86
2023-05-17T05:41:11.075Z,10.88
2023-05-17T05:42:11.073Z,10.89
2023-05-17T05:43:11.078Z,10.93
2023-05-17T05:44:11.071Z,10.98
2023-05-17T05:45:11.072Z,10.99
2023-05-17T05:46:11.084Z,11.00
2023-05-17T05:47:11.076Z,10.99
2023-05-17T05:48:14.217Z,10.98
2023-05-17T05:49:11.154Z,11.00
2023-05-17T05:50:11.086Z,11.03
2023-05-17T05:51:11.068Z,11.06
2023-05-17T05:52:11.076Z,11.11
2023-05-17T05:53:18.784Z,11.14
2023-05-17T05:54:13.090Z,11.13
2023-05-17T05:55:11.079Z,11.14
2023-05-17T05:56:11.100Z,11.06
2023-05-17T05:57:11.086Z,11.09
2023-05-17T05:58:11.095Z,11.09
2023-05-17T05:59:11.084Z,11.08
2023-05-17T06:00:11.077Z,11.08
2023-05-17T06:01:11.084Z,11.09
2023-05-17T06:02:11.077Z,11.13
2023-05-17T06:03:11.076Z,11.10
2023-05-17T06:04:11.074Z,11.10
2023-05-17T06:05:11.078Z,11.15
2023-05-17T06:06:11.157Z,11.18
2023-05-17T06:07:11.076Z,11.21
2023-05-17T06:08:11.087Z,11.22
2023-05-17T06:09:11.076Z,11.27
2023-05-17T06:10:11.088Z,11.33
2023-05-17T06:11:11.087Z,11.38
2023-05-17T06:12:11.078Z,11.48
2023-05-17T06:13:11.087Z,11.50
2023-05-17T06:14:11.087Z,11.54
2023-05-17T06:15:11.078Z,11.61
2023-05-17T06:16:11.089Z,11.71
2023-05-17T06:17:11.085Z,11.76
2023-05-17T06:18:11.135Z,11.82
2023-05-17T06:19:11.202Z,11.85
2023-05-17T06:20:11.119Z,11.87
2023-05-17T06:21:11.081Z,11.96
2023-05-17T06:22:11.086Z,11.98
2023-05-17T06:23:11.092Z,12.02
2023-05-17T06:24:11.100Z,12.03
2023-05-17T06:25:11.099Z,12.02
2023-05-17T06:26:14.089Z,12.01
2023-05-17T06:27:11.082Z,12.02
2023-05-17T06:28:11.086Z,12.04
2023-05-17T06:29:12.529Z,12.08
2023-05-17T06:30:11.081Z,12.13
2023-05-17T06:31:11.090Z,12.12
2023-05-17T06:32:11.090Z,12.15
2023-05-17T06:33:11.150Z,12.17
2023-05-17T06:34:11.218Z,12.17
2023-05-17T06:35:11.109Z,12.17
2023-05-17T06:36:11.086Z,12.20
2023-05-17T06:37:11.078Z,12.14
2023-05-17T06:38:11.082Z,12.11
2023-05-17T06:39:11.102Z,12.03
2023-05-17T06:40:16.784Z,12.07
2023-05-17T06:41:13.047Z,12.06
2023-05-17T06:42:11.080Z,12.06
2023-05-17T06:43:11.075Z,12.05
2023-05-17T06:44:11.079Z,12.05
2023-05-17T06:45:11.108Z,12.11
2023-05-17T06:46:11.078Z,12.11
2023-05-17T06:47:11.084Z,12.14
2023-05-17T06:48:11.298Z,12.19
2023-05-17T06:49:11.125Z,12.25
2023-05-17T06:50:11.080Z,12.26
2023-05-17T06:51:11.089Z,12.23
2023-05-17T06:52:11.079Z,12.28
2023-05-17T06:53:11.079Z,12.29
2023-05-17T06:54:11.082Z,12.34
2023-05-17T06:55:11.082Z,12.40
2023-05-17T06:56:11.078Z,12.42
2023-05-17T06:57:11.093Z,12.44
2023-05-17T06:58:11.100Z,12.42
2023-05-17T06:59:11.087Z,12.41
2023-05-17T07:00:14.081Z,12.42
2023-05-17T07:01:11.061Z,12.45
2023-05-17T07:02:11.066Z,12.49
2023-05-17T07:03:11.124Z,12.50
2023-05-17T07:04:11.137Z,12.47
2023-05-17T07:05:11.149Z,12.47
2023-05-17T07:06:11.076Z,12.48
2023-05-17T07:07:11.065Z,12.47
2023-05-17T07:08:11.072Z,12.46
2023-05-17T07:09:11.071Z,12.44
2023-05-17T07:10:11.065Z,12.39
2023-05-17T07:11:11.061Z,12.40
2023-05-17T07:12:11.069Z,12.50
2023-05-17T07:13:11.064Z,12.55
2023-05-17T07:14:11.071Z,12.57
2023-05-17T07:15:11.104Z,12.60
2023-05-17T07:16:11.064Z,12.63
2023-05-17T07:17:11.068Z,12.72
2023-05-17T07:18:11.132Z,12.77
2023-05-17T07:19:11.136Z,12.86
2023-05-17T07:20:11.229Z,12.90
2023-05-17T07:21:11.088Z,12.90
2023-05-17T07:22:11.069Z,12.90
2023-05-17T07:23:11.065Z,12.92
2023-05-17T07:24:11.077Z,12.92
2023-05-17T07:25:11.065Z,12.88
2023-05-17T07:26:11.072Z,12.90
2023-05-17T07:27:11.069Z,12.90
2023-05-17T07:28:11.071Z,12.86
2023-05-17T07:29:11.069Z,12.90
2023-05-17T07:30:11.071Z,12.92
2023-05-17T07:31:11.069Z,12.92
2023-05-17T07:32:11.068Z,12.98
2023-05-17T07:33:11.117Z,12.98
2023-05-17T07:34:11.100Z,12.97
2023-05-17T07:35:11.069Z,13.05
2023-05-17T07:36:11.099Z,13.08
2023-05-17T07:37:11.092Z,13.09
2023-05-17T07:38:11.072Z,13.10
2023-05-17T07:39:11.074Z,13.21
2023-05-17T07:40:11.085Z,13.22
2023-05-17T07:41:13.073Z,13.24
2023-05-17T07:42:11.092Z,13.39
2023-05-17T07:43:11.090Z,13.50
2023-05-17T07:44:11.070Z,13.62
2023-05-17T07:45:11.082Z,13.66
2023-05-17T07:46:11.073Z,13.62
2023-05-17T07:47:11.136Z,13.65
2023-05-17T07:48:12.619Z,13.72
2023-05-17T07:49:11.167Z,13.73
2023-05-17T07:50:11.077Z,13.79
2023-05-17T07:51:11.071Z,13.89
2023-05-17T07:52:11.083Z,13.91
2023-05-17T07:53:11.077Z,13.99
2023-05-17T07:54:12.075Z,13.98
2023-05-17T07:55:11.080Z,13.96
2023-05-17T07:56:11.074Z,14.01
2023-05-17T07:57:11.085Z,14.04
2023-05-17T07:58:11.086Z,13.97
2023-05-17T07:59:11.075Z,13.95
2023-05-17T08:00:11.078Z,13.94
2023-05-17T08:01:11.083Z,13.94
2023-05-17T08:02:11.077Z,13.95
2023-05-17T08:03:11.110Z,14.02
2023-05-17T08:04:11.132Z,14.13
2023-05-17T08:05:11.080Z,14.17
2023-05-17T08:06:11.133Z,14.28
2023-05-17T08:07:11.094Z,14.37
2023-05-17T08:08:11.076Z,14.40
2023-05-17T08:09:11.080Z,14.43
2023-05-17T08:10:11.099Z,14.37
2023-05-17T08:11:11.079Z,14.31
2023-05-17T08:12:11.081Z,14.27
2023-05-17T08:13:11.086Z,14.30
2023-05-17T08:14:11.081Z,14.39
2023-05-17T08:15:11.080Z,14.43
2023-05-17T08:16:14.092Z,14.40
2023-05-17T08:17:11.079Z,14.37
2023-05-17T08:18:11.158Z,14.43
2023-05-17T08:19:12.207Z,14.51
2023-05-17T08:20:11.188Z,14.50
2023-05-17T08:21:11.080Z,14.51
2023-05-17T08:22:11.096Z,14.56
2023-05-17T08:23:11.078Z,14.59
2023-05-17T08:24:11.086Z,14.61
2023-05-17T08:25:11.085Z,14.59
2023-05-17T08:26:11.074Z,14.64
2023-05-17T08:27:11.078Z,14.63
2023-05-17T08:28:11.081Z,14.61
2023-05-17T08:29:11.080Z,14.40
2023-05-17T08:30:12.091Z,14.50
2023-05-17T08:31:11.086Z,14.62
2023-05-17T08:32:11.083Z,14.62
2023-05-17T08:33:13.130Z,14.67
2023-05-17T08:34:11.135Z,14.71
2023-05-17T08:35:11.083Z,14.72
2023-05-17T08:36:12.081Z,14.74
2023-05-17T08:37:11.131Z,14.81
2023-05-17T08:38:11.097Z,14.96
2023-05-17T08:39:12.083Z,15.04
2023-05-17T08:40:11.249Z,15.08
2023-05-17T08:41:11.076Z,15.18
2023-05-17T08:42:11.089Z,15.29
2023-05-17T08:43:11.090Z,15.38
2023-05-17T08:44:11.102Z,15.43
2023-05-17T08:45:11.087Z,15.53
2023-05-17T08:46:11.094Z,15.71
2023-05-17T08:47:11.095Z,15.83
2023-05-17T08:48:11.185Z,15.97
2023-05-17T08:49:11.113Z,16.06
2023-05-17T08:50:11.086Z,16.11
2023-05-17T08:51:11.081Z,16.22
2023-05-17T08:52:14.087Z,16.20
2023-05-17T08:53:11.134Z,16.06
2023-05-17T08:54:11.075Z,16.07
2023-05-17T08:55:12.180Z,16.15
2023-05-17T08:56:11.081Z,16.10
2023-05-17T08:57:12.078Z,16.17
2023-05-17T08:58:11.082Z,16.24
2023-05-17T08:59:11.083Z,16.13
2023-05-17T09:00:16.093Z,16.11
2023-05-17T09:01:11.080Z,16.03
2023-05-17T09:02:11.124Z,15.94
2023-05-17T09:03:14.164Z,15.86
2023-05-17T09:04:11.097Z,15.89
2023-05-17T09:05:11.317Z,15.90
2023-05-17T09:06:11.090Z,15.96
2023-05-17T09:07:11.080Z,15.92
2023-05-17T09:08:11.094Z,15.91
2023-05-17T09:09:13.086Z,15.89
2023-05-17T09:10:11.085Z,15.81
2023-05-17T09:11:11.082Z,15.78
2023-05-17T09:12:11.079Z,15.85
2023-05-17T09:13:11.081Z,16.14
2023-05-17T09:14:11.083Z,16.20
2023-05-17T09:15:18.078Z,16.26
2023-05-17T09:16:15.085Z,16.18
2023-05-17T09:17:13.090Z,16.16
2023-05-17T09:18:16.284Z,16.23
2023-05-17T09:19:14.137Z,16.36
2023-05-17T09:20:11.154Z,16.45
2023-05-17T09:21:13.083Z,16.62
2023-05-17T09:22:11.085Z,16.86
2023-05-17T09:23:13.084Z,17.08
2023-05-17T09:24:11.101Z,17.30
2023-05-17T09:25:11.079Z,17.30
2023-05-17T09:26:11.084Z,17.42
2023-05-17T09:27:14.087Z,17.52
2023-05-17T09:28:11.079Z,17.58
2023-05-17T09:29:11.082Z,17.61
2023-05-17T09:30:12.133Z,17.52
2023-05-17T09:31:11.098Z,17.42
2023-05-17T09:32:15.089Z,17.53
2023-05-17T09:33:11.834Z,17.42
2023-05-17T09:34:11.164Z,17.38
2023-05-17T09:35:11.082Z,17.26
2023-05-17T09:36:19.096Z,17.15
2023-05-17T09:37:18.089Z,17.01
2023-05-17T09:38:11.087Z,16.80
2023-05-17T09:39:11.091Z,16.66
2023-05-17T09:40:11.095Z,16.57
2023-05-17T09:41:11.086Z,16.51
2023-05-17T09:42:11.097Z,16.36
2023-05-17T09:43:11.096Z,16.35
2023-05-17T09:44:11.093Z,16.27
2023-05-17T09:45:11.085Z,16.20
2023-05-17T09:46:11.098Z,16.12
2023-05-17T09:47:11.091Z,16.20
2023-05-17T09:48:15.331Z,16.32
2023-05-17T09:49:11.090Z,16.48
2023-05-17T09:50:19.140Z,16.72
2023-05-17T09:51:11.091Z,16.86
2023-05-17T09:52:11.094Z,16.78
2023-05-17T09:53:19.098Z,16.83
2023-05-17T09:54:11.087Z,16.74
2023-05-17T09:55:11.093Z,16.56
2023-05-17T09:56:11.107Z,16.46
2023-05-17T09:57:13.094Z,16.41
2023-05-17T09:58:11.094Z,16.31
2023-05-17T09:59:13.184Z,16.26
2023-05-17T10:00:15.088Z,16.23
2023-05-17T10:01:11.071Z,16.25
2023-05-17T10:02:15.079Z,16.10
2023-05-17T10:03:12.110Z,16.16
2023-05-17T10:04:13.209Z,16.16
2023-05-17T10:05:13.135Z,16.16
2023-05-17T10:06:13.263Z,16.11
2023-05-17T10:07:13.080Z,16.12
2023-05-17T10:08:12.066Z,16.02
2023-05-17T10:09:13.076Z,16.04
2023-05-17T10:10:11.069Z,16.02
2023-05-17T10:11:11.069Z,15.96
2023-05-17T10:12:11.077Z,15.84
2023-05-17T10:13:12.120Z,15.87
2023-05-17T10:14:19.095Z,15.91
2023-05-17T10:15:11.119Z,16.02
2023-05-17T10:16:11.073Z,16.19
2023-05-17T10:17:11.076Z,16.41
2023-05-17T10:18:11.163Z,16.57
2023-05-17T10:19:11.154Z,16.68
2023-05-17T10:20:13.208Z,16.88
2023-05-17T10:21:11.072Z,17.20
2023-05-17T10:22:22.549Z,17.50
2023-05-17T10:23:13.037Z,17.65
2023-05-17T10:24:11.073Z,17.67
2023-05-17T10:25:11.078Z,17.87
2023-05-17T10:26:11.078Z,18.00
2023-05-17T10:27:11.068Z,17.99
2023-05-17T10:28:12.083Z,17.88
2023-05-17T10:29:11.097Z,18.01
2023-05-17T10:30:11.072Z,18.05
2023-05-17T10:31:11.072Z,18.34
2023-05-17T10:32:14.092Z,18.52
2023-05-17T10:33:12.223Z,18.66
2023-05-17T10:34:12.157Z,18.64
2023-05-17T10:35:12.239Z,18.46
2023-05-17T10:36:11.072Z,18.36
2023-05-17T10:37:11.078Z,18.39
2023-05-17T10:38:11.074Z,18.48
2023-05-17T10:39:11.072Z,18.44
2023-05-17T10:40:11.076Z,18.29
2023-05-17T10:41:11.076Z,18.18
2023-05-17T10:42:15.101Z,18.24
2023-05-17T10:43:11.076Z,18.26
2023-05-17T10:44:12.110Z,18.09
2023-05-17T10:45:11.101Z,18.08
2023-05-17T10:46:17.084Z,18.14
2023-05-17T10:47:11.076Z,18.20
2023-05-17T10:48:11.124Z,18.16
2023-05-17T10:49:11.072Z,18.24
2023-05-17T10:50:13.081Z,18.06
2023-05-17T10:51:11.075Z,18.05
2023-05-17T10:52:13.071Z,17.96
2023-05-17T10:53:11.106Z,17.73
2023-05-17T10:54:13.097Z,17.68
2023-05-17T10:55:11.070Z,17.70
2023-05-17T10:56:11.073Z,17.53
2023-05-17T10:57:15.072Z,17.54
2023-05-17T10:58:20.197Z,17.51
2023-05-17T10:59:15.079Z,17.48
2023-05-17T11:00:19.079Z,17.41
2023-05-17T11:01:11.073Z,17.31
2023-05-17T11:02:11.080Z,17.24
2023-05-17T11:03:15.079Z,17.26
2023-05-17T11:04:19.102Z,17.27
2023-05-17T11:05:19.091Z,17.17
2023-05-17T11:06:24.661Z,17.18
2023-05-17T11:07:23.072Z,17.22
2023-05-17T11:08:15.079Z,17.16
2023-05-17T11:09:15.078Z,17.14
2023-05-17T11:10:13.074Z,17.20
2023-05-17T11:11:13.075Z,17.30
2023-05-17T11:12:11.081Z,17.51
2023-05-17T11:13:19.080Z,17.64
2023-05-17T11:14:11.070Z,17.83
2023-05-17T11:15:17.087Z,17.92
2023-05-17T11:16:11.075Z,18.17
2023-05-17T11:17:18.129Z,18.25
2023-05-17T11:18:22.355Z,18.41
2023-05-17T11:19:13.133Z,18.53
2023-05-17T11:20:21.263Z,18.59
2023-05-17T11:21:13.081Z,18.74
2023-05-17T11:22:12.088Z,18.59
2023-05-17T11:23:16.094Z,18.77
2023-05-17T11:24:11.077Z,18.76
2023-05-17T11:25:15.082Z,18.92
2023-05-17T11:26:21.109Z,18.88
2023-05-17T11:27:11.085Z,19.11
2023-05-17T11:28:19.086Z,19.00
2023-05-17T11:29:11.088Z,18.95
2023-05-17T11:30:15.126Z,19.11
2023-05-17T11:31:11.079Z,19.24
2023-05-17T11:32:13.083Z,19.40
2023-05-17T11:33:21.073Z,19.57
2023-05-17T11:34:13.102Z,19.55
2023-05-17T11:35:13.085Z,19.67
2023-05-17T11:36:19.095Z,19.87
2023-05-17T11:37:12.082Z,19.95
2023-05-17T11:38:20.075Z,19.83
2023-05-17T11:39:15.137Z,19.69
2023-05-17T11:40:11.088Z,19.63
2023-05-17T11:42:19.089Z,19.54
2023-05-17T11:43:15.113Z,19.74
2023-05-17T11:44:11.086Z,19.84
2023-05-17T11:45:11.089Z,19.66
2023-05-17T11:46:15.083Z,19.47
2023-05-17T11:47:11.126Z,19.50
2023-05-17T11:48:11.124Z,19.28
2023-05-17T11:49:13.675Z,19.08
2023-05-17T11:50:13.069Z,18.90
2023-05-17T11:51:13.092Z,18.78
2023-05-17T11:52:11.082Z,18.63
2023-05-17T11:53:11.092Z,18.55
2023-05-17T11:54:11.088Z,18.41
2023-05-17T11:55:14.084Z,18.38
2023-05-17T11:56:11.094Z,18.20
2023-05-17T11:57:11.098Z,18.22
2023-05-17T11:58:11.088Z,18.16
2023-05-17T11:59:11.209Z,18.09
2023-05-17T12:00:11.097Z,18.02
2023-05-17T12:01:11.099Z,18.09
2023-05-17T12:02:11.086Z,18.01
2023-05-17T12:03:15.171Z,17.93
2023-05-17T12:04:11.087Z,17.85
2023-05-17T12:05:11.086Z,17.87
2023-05-17T12:06:13.158Z,17.83
2023-05-17T12:07:11.141Z,17.80
2023-05-17T12:08:11.101Z,17.76
2023-05-17T12:09:16.093Z,17.73
2023-05-17T12:10:14.146Z,17.58
2023-05-17T12:11:12.094Z,17.51
2023-05-17T12:12:11.090Z,17.52
2023-05-17T12:13:11.099Z,17.50
2023-05-17T12:14:14.085Z,17.47
2023-05-17T12:15:15.085Z,17.46
2023-05-17T12:16:16.842Z,17.43
2023-05-17T12:17:12.095Z,17.44
2023-05-17T12:18:11.184Z,17.48
2023-05-17T12:19:17.184Z,17.49
2023-05-17T12:20:11.136Z,17.45
2023-05-17T12:21:12.086Z,17.47
2023-05-17T12:22:11.104Z,17.49
2023-05-17T12:23:11.095Z,17.47
2023-05-17T12:24:11.118Z,17.53
2023-05-17T12:25:19.098Z,17.57
2023-05-17T12:26:14.092Z,17.56
2023-05-17T12:27:11.115Z,17.55
2023-05-17T12:28:17.090Z,17.54
2023-05-17T12:29:12.121Z,17.60
2023-05-17T12:30:15.096Z,17.67
2023-05-17T12:31:15.093Z,17.68
2023-05-17T12:32:11.086Z,17.63
2023-05-17T12:33:11.188Z,17.74
2023-05-17T12:34:11.181Z,17.78
2023-05-17T12:35:12.006Z,17.80
2023-05-17T12:36:11.090Z,17.89
2023-05-17T12:37:13.089Z,18.00
2023-05-17T12:38:11.090Z,17.96
2023-05-17T12:39:13.098Z,17.91
2023-05-17T12:40:11.088Z,17.93
2023-05-17T12:41:14.084Z,17.96
2023-05-17T12:42:11.111Z,17.87
2023-05-17T12:43:11.128Z,17.86
2023-05-17T12:44:15.766Z,17.88
2023-05-17T12:45:13.151Z,17.83
2023-05-17T12:46:14.093Z,17.91
2023-05-17T12:47:11.092Z,17.97
2023-05-17T12:48:11.203Z,17.95
2023-05-17T12:49:11.334Z,17.99
2023-05-17T12:50:11.112Z,18.06
2023-05-17T12:51:16.094Z,18.09
2023-05-17T12:52:11.095Z,18.18
2023-05-17T12:53:11.094Z,18.20